Prairie Dog, Nebraska
Current Conditions -  °F | °C
As of 3:35 AM on Friday 28 Nov 2014 (Local Time) from KHDE Reporting Station
Clear Clear  
Wind Chill: 26°   Ceiling: Unl
Heat Index: 32°   Visibility: 10mi
Dew Point: 23°   Wind: 7mph
Humidity: 68%   Direction: 260°W
Pressure: 29.91"   Gusts: NA
Location:  40.1838°N, 99.3522°W
Report Text: KHDE 280935Z AUTO 26006KT 10SM CLR 00/M05 A2991 RMK AO2 T00011052
Loading
Personal Weather Stations






























Interactive Weather Map New forecast layout! Learn more

10-Day Weather Forecast

Advertisements
Track Severe Weather on mobile